createdAt,value
2022-10-01T00:02:08.382Z,97957.00
2022-10-01T00:04:39.573Z,97967.72
2022-10-01T00:07:10.851Z,97972.03
2022-10-01T00:09:39.532Z,97966.28
2022-10-01T00:12:09.504Z,97965.56
2022-10-01T00:14:39.414Z,97963.97
2022-10-01T00:17:07.766Z,97950.09
2022-10-01T00:19:37.375Z,97950.75
2022-10-01T00:22:05.792Z,97950.25
2022-10-01T00:24:34.119Z,97941.94
2022-10-01T00:27:02.433Z,97950.75
2022-10-01T00:29:31.839Z,97952.72
2022-10-01T00:32:00.202Z,97957.13
2022-10-01T00:34:28.774Z,97961.34
2022-10-01T00:36:58.373Z,97953.78
2022-10-01T00:39:26.767Z,97942.59
2022-10-01T00:41:55.070Z,97953.22
2022-10-01T00:44:33.228Z,97962.84
2022-10-01T00:47:07.790Z,97957.00
2022-10-01T00:49:39.103Z,97954.78
2022-10-01T00:52:14.682Z,97945.19
2022-10-01T00:54:47.286Z,97959.69
2022-10-01T00:57:19.937Z,97975.19
2022-10-01T00:59:49.657Z,97968.53
2022-10-01T01:02:18.174Z,97973.78
2022-10-01T01:04:46.451Z,97964.44
2022-10-01T01:07:16.978Z,97958.72
2022-10-01T01:09:48.802Z,97960.22
2022-10-01T01:12:32.703Z,97957.94
2022-10-01T01:15:16.025Z,97957.13
2022-10-01T01:17:54.575Z,97953.56
2022-10-01T01:20:45.225Z,97956.13
2022-10-01T01:23:48.577Z,97956.44
2022-10-01T01:26:31.094Z,97948.56
2022-10-01T01:29:06.701Z,97953.66
2022-10-01T01:31:40.282Z,97947.66
2022-10-01T01:34:12.986Z,97948.72
2022-10-01T01:36:46.937Z,97943.13
2022-10-01T01:39:18.203Z,97932.38
2022-10-01T01:41:51.591Z,97922.09
2022-10-01T01:44:26.987Z,97911.78
2022-10-01T01:46:57.414Z,97912.69
2022-10-01T01:49:26.884Z,97906.69
2022-10-01T01:52:02.484Z,97908.44
2022-10-01T01:54:30.996Z,97910.28
2022-10-01T01:57:01.486Z,97903.63
2022-10-01T01:59:33.893Z,97899.31
2022-10-01T02:02:03.324Z,97893.50
2022-10-01T02:04:36.342Z,97893.53
2022-10-01T02:07:42.934Z,97902.44
2022-10-01T02:10:27.995Z,97898.94
2022-10-01T02:13:11.783Z,97895.44
2022-10-01T02:15:59.657Z,97887.00
2022-10-01T02:18:36.065Z,97891.22
2022-10-01T02:21:12.332Z,97895.28
2022-10-01T02:23:46.155Z,97885.81
2022-10-01T02:26:20.023Z,97887.66
2022-10-01T02:28:50.444Z,97880.00
2022-10-01T02:31:21.570Z,97886.06
2022-10-01T02:33:52.323Z,97887.00
2022-10-01T02:36:22.127Z,97887.00
2022-10-01T02:38:51.741Z,97887.97
2022-10-01T02:41:28.095Z,97892.97
2022-10-01T02:44:00.643Z,97892.28
2022-10-01T02:46:38.282Z,97884.56
2022-10-01T02:49:06.692Z,97881.84
2022-10-01T02:51:46.033Z,97882.66
2022-10-01T02:54:20.276Z,97888.78
2022-10-01T02:57:06.562Z,97880.19
2022-10-01T02:59:34.828Z,97867.38
2022-10-01T03:02:04.908Z,97876.69
2022-10-01T03:04:33.201Z,97869.94
2022-10-01T03:07:04.003Z,97880.34
2022-10-01T03:09:32.517Z,97876.69
2022-10-01T03:12:01.112Z,97868.88
2022-10-01T03:14:29.882Z,97869.72
2022-10-01T03:16:58.183Z,97867.91
2022-10-01T03:19:27.880Z,97879.69
2022-10-01T03:21:56.469Z,97870.47
2022-10-01T03:24:24.795Z,97851.63
2022-10-01T03:26:53.044Z,97853.97
2022-10-01T03:29:21.343Z,97845.47
2022-10-01T03:31:49.742Z,97852.97
2022-10-01T03:34:18.196Z,97844.34
2022-10-01T03:36:48.372Z,97847.75
2022-10-01T03:39:17.047Z,97848.66
2022-10-01T03:41:45.391Z,97863.19
2022-10-01T03:44:13.807Z,97856.53
2022-10-01T03:46:42.092Z,97845.06
2022-10-01T03:49:10.629Z,97840.94
2022-10-01T03:51:39.160Z,97837.34
2022-10-01T03:54:11.200Z,97839.34
2022-10-01T03:56:40.804Z,97836.75
2022-10-01T03:59:09.255Z,97832.03
2022-10-01T04:01:38.011Z,97825.22
2022-10-01T04:04:06.855Z,97833.09
2022-10-01T04:06:35.390Z,97827.38
2022-10-01T04:09:03.821Z,97822.22
2022-10-01T04:11:33.870Z,97825.88
2022-10-01T04:14:02.316Z,97824.34
2022-10-01T04:16:30.826Z,97818.16
2022-10-01T04:18:59.219Z,97815.41
2022-10-01T04:21:27.786Z,97818.00
2022-10-01T04:23:56.235Z,97823.03
2022-10-01T04:26:25.142Z,97830.69
2022-10-01T04:28:54.870Z,97828.19
2022-10-01T04:31:26.106Z,97822.22
2022-10-01T04:33:55.869Z,97816.97
2022-10-01T04:36:25.119Z,97814.41
2022-10-01T04:38:57.901Z,97804.06
2022-10-01T04:41:26.455Z,97803.28
2022-10-01T04:43:56.183Z,97800.63
2022-10-01T04:46:24.476Z,97814.25
2022-10-01T04:48:52.794Z,97811.59
2022-10-01T04:51:21.068Z,97806.44
2022-10-01T04:53:49.352Z,97806.13
2022-10-01T04:56:17.601Z,97804.47
2022-10-01T04:58:46.038Z,97807.94
2022-10-01T05:01:15.761Z,97812.78
2022-10-01T05:03:44.147Z,97818.06
2022-10-01T05:06:12.458Z,97816.75
2022-10-01T05:08:40.728Z,97817.75
2022-10-01T05:11:09.166Z,97816.59
2022-10-01T05:13:37.877Z,97798.50
2022-10-01T05:16:06.863Z,97799.81
2022-10-01T05:18:36.958Z,97801.56
2022-10-01T05:21:09.977Z,97809.81
2022-10-01T05:23:38.299Z,97813.13
2022-10-01T05:26:07.416Z,97808.81
2022-10-01T05:28:37.134Z,97811.47
2022-10-01T05:31:06.271Z,97801.16
2022-10-01T05:33:35.999Z,97801.00
2022-10-01T05:36:05.117Z,97792.53
2022-10-01T05:38:36.261Z,97794.34
2022-10-01T05:41:04.993Z,97796.94
2022-10-01T05:43:37.513Z,97804.66
2022-10-01T05:46:06.491Z,97786.63
2022-10-01T05:48:37.051Z,97788.28
2022-10-01T05:51:08.134Z,97805.88
2022-10-01T05:53:38.177Z,97804.41
2022-10-01T05:56:07.758Z,97790.63
2022-10-01T05:58:36.707Z,97787.03
2022-10-01T06:01:05.785Z,97777.56
2022-10-01T06:03:36.099Z,97779.06
2022-10-01T06:06:05.448Z,97773.06
2022-10-01T06:08:35.874Z,97766.00
2022-10-01T06:11:04.809Z,97758.38
2022-10-01T06:13:33.140Z,97752.31
2022-10-01T06:16:01.771Z,97747.41
2022-10-01T06:18:31.336Z,97745.56
2022-10-01T06:21:01.789Z,97748.97
2022-10-01T06:23:30.281Z,97738.66
2022-10-01T06:26:01.086Z,97734.38
2022-10-01T06:28:29.914Z,97738.78
2022-10-01T06:30:58.400Z,97730.22
2022-10-01T06:33:26.884Z,97735.09
2022-10-01T06:35:56.179Z,97730.78
2022-10-01T06:38:26.337Z,97729.47
2022-10-01T06:40:56.935Z,97738.09
2022-10-01T06:43:27.638Z,97728.56
2022-10-01T06:45:57.326Z,97732.97
2022-10-01T06:48:26.710Z,97725.41
2022-10-01T06:50:57.477Z,97720.25
2022-10-01T06:53:29.353Z,97725.41
2022-10-01T06:55:57.898Z,97722.91
2022-10-01T06:58:27.629Z,97737.38
2022-10-01T07:01:01.458Z,97738.88
2022-10-01T07:03:31.267Z,97737.03
2022-10-01T07:06:04.507Z,97742.34
2022-10-01T07:08:34.293Z,97740.69
2022-10-01T07:11:03.693Z,97741.34
2022-10-01T07:13:32.386Z,97738.03
2022-10-01T07:16:00.855Z,97738.03
2022-10-01T07:18:29.187Z,97729.47
2022-10-01T07:20:58.416Z,97730.53
2022-10-01T07:23:26.648Z,97736.56
2022-10-01T07:25:56.229Z,97735.69
2022-10-01T07:28:26.202Z,97730.53
2022-10-01T07:31:03.219Z,97721.94
2022-10-01T07:33:31.633Z,97722.75
2022-10-01T07:36:03.156Z,97729.66
2022-10-01T07:38:33.533Z,97720.06
2022-10-01T07:41:04.626Z,97712.44
2022-10-01T07:43:34.662Z,97728.38
2022-10-01T07:46:03.491Z,97716.41
2022-10-01T07:48:32.370Z,97716.75
2022-10-01T07:51:00.768Z,97717.75
2022-10-01T07:53:29.216Z,97731.53
2022-10-01T07:55:57.911Z,97718.66
2022-10-01T07:58:27.612Z,97732.19
2022-10-01T08:00:58.402Z,97732.19
2022-10-01T08:03:27.033Z,97738.19
2022-10-01T08:05:55.445Z,97738.09
2022-10-01T08:08:24.104Z,97729.34
2022-10-01T08:10:52.587Z,97729.19
2022-10-01T08:13:24.688Z,97730.09
2022-10-01T08:15:54.983Z,97728.94
2022-10-01T08:18:24.238Z,97727.94
2022-10-01T08:20:52.685Z,97734.47
2022-10-01T08:23:21.632Z,97732.16
2022-10-01T08:25:49.916Z,97742.47
2022-10-01T08:28:18.667Z,97739.91
2022-10-01T08:30:46.982Z,97750.94
2022-10-01T08:33:16.748Z,97750.09
2022-10-01T08:35:45.386Z,97742.09
2022-10-01T08:38:14.643Z,97757.41
2022-10-01T08:40:47.584Z,97760.06
2022-10-01T08:43:36.387Z,97762.56
2022-10-01T08:46:08.517Z,97750.59
2022-10-01T08:48:56.911Z,97756.41
2022-10-01T08:51:32.763Z,97759.81
2022-10-01T08:54:10.815Z,97763.13
2022-10-01T08:56:45.162Z,97755.56
2022-10-01T08:59:29.978Z,97759.63
2022-10-01T09:01:59.112Z,97763.78
2022-10-01T09:04:30.529Z,97767.38
2022-10-01T09:07:08.388Z,97757.13
2022-10-01T09:09:46.482Z,97770.88
2022-10-01T09:12:29.913Z,97770.69
2022-10-01T09:15:17.778Z,97769.03
2022-10-01T09:18:02.894Z,97767.38
2022-10-01T09:20:37.293Z,97760.56
2022-10-01T09:23:20.090Z,97761.03
2022-10-01T09:25:51.424Z,97760.09
2022-10-01T09:28:24.013Z,97758.44
2022-10-01T09:30:57.974Z,97749.88
2022-10-01T09:33:32.937Z,97755.69
2022-10-01T09:36:14.217Z,97761.50
2022-10-01T09:38:45.284Z,97761.50
2022-10-01T09:41:14.761Z,97766.50
2022-10-01T09:43:46.015Z,97768.31
2022-10-01T09:46:18.582Z,97767.97
2022-10-01T09:48:57.070Z,97766.41
2022-10-01T09:51:36.992Z,97772.47
2022-10-01T09:54:16.349Z,97772.47
2022-10-01T09:56:54.178Z,97775.06
2022-10-01T09:59:29.867Z,97780.88
2022-10-01T10:02:02.646Z,97779.84
2022-10-01T10:04:31.613Z,97782.09
2022-10-01T10:07:06.105Z,97782.84
2022-10-01T10:09:36.691Z,97785.16
2022-10-01T10:12:08.320Z,97778.41
2022-10-01T10:14:40.119Z,97784.38
2022-10-01T10:17:15.834Z,97787.34
2022-10-01T10:19:51.648Z,97786.47
2022-10-01T10:22:25.674Z,97781.84
2022-10-01T10:24:57.913Z,97782.06
2022-10-01T10:27:28.994Z,97768.31
2022-10-01T10:30:08.583Z,97769.34
2022-10-01T10:32:36.950Z,97769.25
2022-10-01T10:35:10.774Z,97759.44
2022-10-01T10:37:48.322Z,97755.75
2022-10-01T10:40:20.386Z,97751.88
2022-10-01T10:42:50.667Z,97763.97
2022-10-01T10:45:22.210Z,97761.16
2022-10-01T10:47:53.740Z,97751.31
2022-10-01T10:50:34.962Z,97761.63
2022-10-01T10:53:22.217Z,97748.72
2022-10-01T10:56:01.200Z,97750.94
2022-10-01T10:58:33.161Z,97764.38
2022-10-01T11:01:06.896Z,97745.19
2022-10-01T11:03:42.445Z,97740.56
2022-10-01T11:06:14.808Z,97734.50
2022-10-01T11:08:46.663Z,97744.44
2022-10-01T11:11:32.420Z,97724.34
2022-10-01T11:14:18.065Z,97732.44
2022-10-01T11:17:25.850Z,97736.47
2022-10-01T11:20:19.855Z,97734.78
2022-10-01T11:23:03.929Z,97728.13
2022-10-01T11:25:46.222Z,97740.88
2022-10-01T11:28:33.987Z,97751.00
2022-10-01T11:31:12.875Z,97745.84
2022-10-01T11:33:58.427Z,97730.88
2022-10-01T11:36:32.271Z,97739.44
2022-10-01T11:39:03.828Z,97743.59
2022-10-01T11:41:39.300Z,97745.06
2022-10-01T11:44:15.448Z,97762.31
2022-10-01T11:46:58.935Z,97757.50
2022-10-01T11:49:46.628Z,97758.13
2022-10-01T11:52:37.125Z,97760.41
2022-10-01T11:55:38.570Z,97761.34
2022-10-01T11:58:34.388Z,97772.22
2022-10-01T12:01:11.752Z,97768.06
2022-10-01T12:03:54.909Z,97776.44
2022-10-01T12:06:33.796Z,97783.19
2022-10-01T12:09:10.598Z,97782.53
2022-10-01T12:11:44.746Z,97784.13
2022-10-01T12:14:21.055Z,97786.69
2022-10-01T12:16:55.012Z,97786.06
2022-10-01T12:19:28.368Z,97776.13
2022-10-01T12:22:03.041Z,97768.19
2022-10-01T12:24:36.774Z,97784.03
2022-10-01T12:27:28.195Z,97804.00
2022-10-01T12:30:05.243Z,97789.94
2022-10-01T12:32:47.857Z,97789.44
2022-10-01T12:35:35.697Z,97789.88
2022-10-01T12:38:20.694Z,97799.50
2022-10-01T12:40:55.399Z,97788.13
2022-10-01T12:43:45.990Z,97789.50
2022-10-01T12:46:27.885Z,97793.47
2022-10-01T12:49:07.893Z,97799.22
2022-10-01T12:51:42.739Z,97802.25
2022-10-01T12:54:26.284Z,97813.34
2022-10-01T12:57:04.337Z,97805.97
2022-10-01T12:59:48.588Z,97806.72
2022-10-01T13:02:41.790Z,97785.00
2022-10-01T13:05:20.983Z,97798.75
2022-10-01T13:08:18.662Z,97812.13
2022-10-01T13:10:57.323Z,97798.34
2022-10-01T13:13:33.524Z,97798.84
2022-10-01T13:16:10.372Z,97798.31
2022-10-01T13:18:56.633Z,97801.13
2022-10-01T13:21:37.991Z,97794.88
2022-10-01T13:24:14.912Z,97817.38
2022-10-01T13:26:48.711Z,97805.16
2022-10-01T13:29:32.173Z,97810.03
2022-10-01T13:32:03.071Z,97818.28
2022-10-01T13:34:42.249Z,97799.25
2022-10-01T13:37:14.087Z,97811.88
2022-10-01T13:39:43.439Z,97804.59
2022-10-01T13:42:22.352Z,97805.91
2022-10-01T13:44:57.450Z,97813.41
2022-10-01T13:47:27.296Z,97818.66
2022-10-01T13:50:00.579Z,97811.38
2022-10-01T13:52:29.116Z,97801.63
2022-10-01T13:54:59.017Z,97806.63
2022-10-01T13:57:32.892Z,97793.75
2022-10-01T14:00:20.335Z,97811.69
2022-10-01T14:03:04.290Z,97803.69
2022-10-01T14:05:43.703Z,97797.13
2022-10-01T14:08:19.100Z,97801.78
2022-10-01T14:11:12.171Z,97804.63
2022-10-01T14:14:05.203Z,97807.94
2022-10-01T14:16:40.183Z,97814.13
2022-10-01T14:19:09.600Z,97813.56
2022-10-01T14:21:53.892Z,97818.41
2022-10-01T14:24:32.870Z,97814.16
2022-10-01T14:27:10.976Z,97816.53
2022-10-01T14:29:53.927Z,97822.56
2022-10-01T14:32:38.173Z,97814.09
2022-10-01T14:35:26.642Z,97823.78
2022-10-01T14:38:02.004Z,97826.38
2022-10-01T14:40:39.112Z,97823.31
2022-10-01T14:43:19.032Z,97823.09
2022-10-01T14:45:56.711Z,97817.88
2022-10-01T14:48:29.219Z,97818.00
2022-10-01T14:51:00.999Z,97829.91
2022-10-01T14:53:34.379Z,97828.06
2022-10-01T14:56:07.705Z,97826.97
2022-10-01T14:58:40.741Z,97828.06
2022-10-01T15:01:18.216Z,97835.50
2022-10-01T15:03:47.924Z,97829.91
2022-10-01T15:06:19.102Z,97828.97
2022-10-01T15:08:50.831Z,97840.81
2022-10-01T15:11:23.837Z,97846.81
2022-10-01T15:13:54.614Z,97834.88
2022-10-01T15:16:25.563Z,97842.91
2022-10-01T15:18:57.886Z,97837.72
2022-10-01T15:21:31.825Z,97848.22
2022-10-01T15:24:04.478Z,97843.63
2022-10-01T15:26:33.723Z,97853.06
2022-10-01T15:29:05.122Z,97864.44
2022-10-01T15:31:35.157Z,97848.75
2022-10-01T15:34:06.310Z,97851.03
2022-10-01T15:36:37.093Z,97846.78
2022-10-01T15:39:25.811Z,97852.91
2022-10-01T15:41:55.611Z,97860.94
2022-10-01T15:44:46.477Z,97850.28
2022-10-01T15:47:33.749Z,97867.25
2022-10-01T15:50:05.383Z,97867.47
2022-10-01T15:52:53.189Z,97873.09
2022-10-01T15:55:32.080Z,97873.94
2022-10-01T15:58:09.032Z,97882.78
2022-10-01T16:01:00.599Z,97886.41
2022-10-01T16:03:34.252Z,97884.97
2022-10-01T16:06:05.171Z,97883.94
2022-10-01T16:08:40.387Z,97889.56
2022-10-01T16:11:23.872Z,97891.25
2022-10-01T16:13:54.762Z,97888.75
2022-10-01T16:16:31.119Z,97889.34
2022-10-01T16:19:20.003Z,97914.47
2022-10-01T16:22:20.968Z,97909.63
2022-10-01T16:24:52.247Z,97913.25
2022-10-01T16:27:25.213Z,97913.16
2022-10-01T16:30:04.981Z,97916.19
2022-10-01T16:32:34.852Z,97904.66
2022-10-01T16:35:19.917Z,97917.13
2022-10-01T16:37:50.070Z,97918.16
2022-10-01T16:40:19.404Z,97920.16
2022-10-01T16:42:50.469Z,97923.47
2022-10-01T16:45:22.660Z,97921.81
2022-10-01T16:47:51.746Z,97935.72
2022-10-01T16:50:22.379Z,97927.31
2022-10-01T16:52:53.897Z,97933.25
2022-10-01T16:55:25.460Z,97944.66
2022-10-01T16:57:56.012Z,97949.22
2022-10-01T17:00:26.633Z,97952.56
2022-10-01T17:02:56.076Z,97954.41
2022-10-01T17:05:28.200Z,97960.44
2022-10-01T17:08:00.979Z,97956.31
2022-10-01T17:10:31.879Z,97965.84
2022-10-01T17:13:02.071Z,97971.63
2022-10-01T17:15:30.469Z,97961.59
2022-10-01T17:18:00.238Z,97957.56
2022-10-01T17:20:30.347Z,97963.69
2022-10-01T17:23:00.493Z,97967.22
2022-10-01T17:25:32.385Z,97981.00
2022-10-01T17:28:06.607Z,97983.69
2022-10-01T17:30:35.506Z,97982.25
2022-10-01T17:33:03.754Z,97986.63
2022-10-01T17:35:32.191Z,97991.72
2022-10-01T17:38:00.591Z,97987.97
2022-10-01T17:40:29.330Z,98000.41
2022-10-01T17:42:57.560Z,97997.94
2022-10-01T17:45:27.266Z,98002.09
2022-10-01T17:47:56.537Z,98007.69
2022-10-01T17:50:24.789Z,98007.81
2022-10-01T17:52:53.322Z,98014.53
2022-10-01T17:55:23.641Z,98017.13
2022-10-01T17:57:52.664Z,98022.75
2022-10-01T18:00:21.235Z,98031.66
2022-10-01T18:02:51.149Z,98034.34
2022-10-01T18:05:19.741Z,98036.94
2022-10-01T18:07:48.176Z,98047.22
2022-10-01T18:10:16.541Z,98048.13
2022-10-01T18:12:44.967Z,98062.88
2022-10-01T18:15:13.796Z,98053.00
2022-10-01T18:17:43.748Z,98048.84
2022-10-01T18:20:21.918Z,98062.84
2022-10-01T18:22:51.243Z,98067.91
2022-10-01T18:25:19.993Z,98072.06
2022-10-01T18:27:51.003Z,98084.94
2022-10-01T18:30:20.146Z,98081.69
2022-10-01T18:32:56.899Z,98083.38
2022-10-01T18:35:32.322Z,98085.97
2022-10-01T18:38:07.879Z,98094.66
2022-10-01T18:40:43.208Z,98100.97
2022-10-01T18:43:17.281Z,98112.47
2022-10-01T18:46:05.702Z,98132.81
2022-10-01T18:48:53.209Z,98141.78
2022-10-01T18:51:39.875Z,98134.00
2022-10-01T18:54:34.494Z,98144.75
2022-10-01T18:57:16.388Z,98153.00
2022-10-01T19:00:06.449Z,98150.25
2022-10-01T19:02:55.151Z,98150.66
2022-10-01T19:06:25.900Z,98151.97
2022-10-01T19:09:09.758Z,98152.06
2022-10-01T19:11:49.855Z,98164.28
2022-10-01T19:14:43.017Z,98174.81
2022-10-01T19:17:27.606Z,98178.03
2022-10-01T19:20:14.609Z,98179.91
2022-10-01T19:23:02.453Z,98198.03
2022-10-01T19:25:37.459Z,98186.94
2022-10-01T19:28:22.504Z,98192.22
2022-10-01T19:31:02.446Z,98185.34
2022-10-01T19:33:33.895Z,98199.34
2022-10-01T19:36:03.042Z,98205.53
2022-10-01T19:38:38.339Z,98201.16
2022-10-01T19:41:15.882Z,98200.97
2022-10-01T19:43:52.108Z,98207.00
2022-10-01T19:46:27.447Z,98219.75
2022-10-01T19:49:03.523Z,98214.94
2022-10-01T19:51:36.108Z,98214.84
2022-10-01T19:54:17.666Z,98224.38
2022-10-01T19:56:50.069Z,98230.31
2022-10-01T19:59:21.056Z,98230.47
2022-10-01T20:01:54.887Z,98230.47
2022-10-01T20:04:38.234Z,98238.53
2022-10-01T20:07:12.356Z,98237.97
2022-10-01T20:09:46.954Z,98260.91
2022-10-01T20:12:26.841Z,98261.09
2022-10-01T20:15:11.319Z,98258.59
2022-10-01T20:17:57.180Z,98271.63
2022-10-01T20:20:33.680Z,98279.22
2022-10-01T20:23:20.344Z,98280.16
2022-10-01T20:25:57.822Z,98285.88
2022-10-01T20:28:36.129Z,98291.25
2022-10-01T20:31:14.095Z,98296.41
2022-10-01T20:33:51.634Z,98286.88
2022-10-01T20:36:31.709Z,98281.63
2022-10-01T20:39:06.408Z,98290.34
2022-10-01T20:41:45.138Z,98293.66
2022-10-01T20:44:18.722Z,98296.16
2022-10-01T20:46:49.697Z,98301.34
2022-10-01T20:49:27.984Z,98302.72
2022-10-01T20:52:09.148Z,98302.16
2022-10-01T20:54:46.554Z,98303.09
2022-10-01T20:57:26.827Z,98314.34
2022-10-01T20:59:57.275Z,98317.41
2022-10-01T21:02:33.798Z,98324.91
2022-10-01T21:05:06.541Z,98322.69
2022-10-01T21:07:40.402Z,98326.97
2022-10-01T21:10:20.986Z,98328.97
2022-10-01T21:13:00.669Z,98323.97
2022-10-01T21:15:43.569Z,98324.72
2022-10-01T21:18:22.191Z,98336.97
2022-10-01T21:21:01.268Z,98340.94
2022-10-01T21:23:51.457Z,98344.91
2022-10-01T21:26:27.884Z,98351.63
2022-10-01T21:29:24.258Z,98354.69
2022-10-01T21:32:09.564Z,98359.50
2022-10-01T21:34:55.390Z,98356.00
2022-10-01T21:37:32.021Z,98353.50
2022-10-01T21:40:09.899Z,98351.09
2022-10-01T21:42:52.377Z,98357.09
2022-10-01T21:45:26.651Z,98360.50
2022-10-01T21:48:16.337Z,98381.72
2022-10-01T21:50:57.031Z,98386.06
2022-10-01T21:53:59.393Z,98400.78
2022-10-01T21:56:59.748Z,98383.75
2022-10-01T21:59:52.342Z,98385.75
2022-10-01T22:02:36.350Z,98391.22
2022-10-01T22:05:17.500Z,98404.53
2022-10-01T22:07:54.614Z,98397.44
2022-10-01T22:10:28.049Z,98396.13
2022-10-01T22:13:00.404Z,98407.47
2022-10-01T22:15:36.733Z,98406.19
2022-10-01T22:18:13.343Z,98418.16
2022-10-01T22:20:43.851Z,98429.78
2022-10-01T22:23:18.035Z,98433.47
2022-10-01T22:25:55.353Z,98433.47
2022-10-01T22:28:30.078Z,98430.78
2022-10-01T22:31:00.557Z,98423.78
2022-10-01T22:33:38.862Z,98423.09
2022-10-01T22:36:12.212Z,98424.59
2022-10-01T22:38:47.483Z,98435.03
2022-10-01T22:41:21.640Z,98430.59
2022-10-01T22:43:50.271Z,98437.72
2022-10-01T22:46:43.942Z,98434.13
2022-10-01T22:49:27.787Z,98441.22
2022-10-01T22:52:13.020Z,98451.75
2022-10-01T22:54:50.804Z,98451.00
2022-10-01T22:57:40.301Z,98446.59
2022-10-01T23:00:13.085Z,98442.13
2022-10-01T23:02:45.234Z,98445.66
2022-10-01T23:05:45.247Z,98450.56
2022-10-01T23:08:22.834Z,98452.31
2022-10-01T23:11:04.040Z,98450.66
2022-10-01T23:13:43.286Z,98457.50
2022-10-01T23:16:21.978Z,98457.50
2022-10-01T23:19:05.191Z,98459.19
2022-10-01T23:21:44.752Z,98466.28
2022-10-01T23:24:31.009Z,98467.13
2022-10-01T23:27:12.430Z,98468.22
2022-10-01T23:30:05.763Z,98463.38
2022-10-01T23:32:59.179Z,98476.50
2022-10-01T23:35:42.700Z,98479.84
2022-10-01T23:38:33.406Z,98492.84
2022-10-01T23:41:11.241Z,98486.84
2022-10-01T23:43:48.146Z,98496.28
2022-10-01T23:46:20.509Z,98501.22
2022-10-01T23:48:56.837Z,98490.91
2022-10-01T23:51:29.873Z,98491.94
2022-10-01T23:54:06.800Z,98498.88
2022-10-01T23:56:48.928Z,98500.53
2022-10-01T23:59:27.515Z,98509.13
